createdAt,value
2024-02-26T00:00:10.164Z,99635.03
2024-02-26T00:02:56.801Z,99639.84
2024-02-26T00:05:43.295Z,99642.75
2024-02-26T00:08:31.904Z,99635.69
2024-02-26T00:11:18.152Z,99634.03
2024-02-26T00:14:04.624Z,99638.59
2024-02-26T00:16:51.042Z,99627.38
2024-02-26T00:19:37.734Z,99632.56
2024-02-26T00:22:24.058Z,99631.91
2024-02-26T00:25:13.473Z,99627.59
2024-02-26T00:27:59.866Z,99633.78
2024-02-26T00:30:45.793Z,99625.50
2024-02-26T00:33:32.255Z,99627.59
2024-02-26T00:36:19.844Z,99620.75
2024-02-26T00:39:05.988Z,99619.28
2024-02-26T00:41:53.556Z,99620.25
2024-02-26T00:44:39.921Z,99615.09
2024-02-26T00:47:26.416Z,99614.63
2024-02-26T00:50:12.659Z,99620.00
2024-02-26T00:52:58.703Z,99618.56
2024-02-26T00:55:44.778Z,99624.94
2024-02-26T00:58:32.289Z,99613.78
2024-02-26T01:01:18.678Z,99617.81
2024-02-26T01:04:05.414Z,99613.84
2024-02-26T01:06:51.649Z,99616.78
2024-02-26T01:09:37.607Z,99617.84
2024-02-26T01:12:23.641Z,99616.44
2024-02-26T01:15:11.719Z,99630.28
2024-02-26T01:17:58.317Z,99621.00
2024-02-26T01:20:44.336Z,99620.63
2024-02-26T01:23:30.583Z,99622.66
2024-02-26T01:26:16.691Z,99628.03
2024-02-26T01:29:02.664Z,99629.50
2024-02-26T01:31:50.122Z,99632.81
2024-02-26T01:34:38.080Z,99627.38
2024-02-26T01:37:24.773Z,99625.34
2024-02-26T01:40:12.247Z,99623.06
2024-02-26T01:42:58.421Z,99622.88
2024-02-26T01:45:44.741Z,99623.31
2024-02-26T01:48:32.563Z,99624.34
2024-02-26T01:51:19.696Z,99620.63
2024-02-26T01:54:05.962Z,99624.34
2024-02-26T01:56:52.676Z,99622.00
2024-02-26T01:59:39.097Z,99622.63
2024-02-26T02:02:25.255Z,99625.31
2024-02-26T02:05:14.019Z,99632.16
2024-02-26T02:08:00.936Z,99628.59
2024-02-26T02:10:48.820Z,99629.47
2024-02-26T02:13:34.940Z,99621.41
2024-02-26T02:16:20.981Z,99630.88
2024-02-26T02:19:07.220Z,99633.56
2024-02-26T02:21:54.377Z,99637.28
2024-02-26T02:24:40.506Z,99638.03
2024-02-26T02:27:27.303Z,99632.63
2024-02-26T02:30:14.183Z,99634.22
2024-02-26T02:33:00.520Z,99628.22
2024-02-26T02:35:47.816Z,99637.84
2024-02-26T02:38:35.998Z,99628.81
2024-02-26T02:41:22.829Z,99633.59
2024-02-26T02:44:09.035Z,99623.88
2024-02-26T02:46:55.135Z,99628.13
2024-02-26T02:49:41.654Z,99633.78
2024-02-26T02:52:27.744Z,99631.34
2024-02-26T02:55:15.543Z,99630.94
2024-02-26T02:58:01.934Z,99631.81
2024-02-26T03:00:48.209Z,99632.63
2024-02-26T03:03:34.395Z,99640.47
2024-02-26T03:06:22.179Z,99643.00
2024-02-26T03:09:08.491Z,99644.00
2024-02-26T03:11:55.920Z,99644.22
2024-02-26T03:14:42.489Z,99643.38
2024-02-26T03:17:28.748Z,99648.13
2024-02-26T03:20:14.807Z,99643.56
2024-02-26T03:23:00.993Z,99641.38
2024-02-26T03:25:48.903Z,99646.13
2024-02-26T03:28:36.159Z,99649.19
2024-02-26T03:31:22.728Z,99650.47
2024-02-26T03:34:08.989Z,99652.13
2024-02-26T03:36:54.853Z,99646.41
2024-02-26T03:39:40.988Z,99651.56
2024-02-26T03:42:27.111Z,99658.91
2024-02-26T03:45:14.396Z,99653.09
2024-02-26T03:48:01.287Z,99656.75
2024-02-26T03:50:47.709Z,99655.41
2024-02-26T03:53:33.794Z,99646.44
2024-02-26T03:56:19.754Z,99656.97
2024-02-26T03:59:05.928Z,99650.91
2024-02-26T04:01:53.429Z,99656.91
2024-02-26T04:04:39.655Z,99653.59
2024-02-26T04:07:25.770Z,99651.13
2024-02-26T04:10:11.999Z,99655.81
2024-02-26T04:12:58.139Z,99658.31
2024-02-26T04:15:44.103Z,99661.25
2024-02-26T04:18:31.662Z,99666.13
2024-02-26T04:21:17.885Z,99664.28
2024-02-26T04:24:04.131Z,99674.53
2024-02-26T04:26:50.942Z,99669.28
2024-02-26T04:29:36.881Z,99682.88
2024-02-26T04:32:22.866Z,99682.13
2024-02-26T04:35:11.377Z,99681.84
2024-02-26T04:37:57.791Z,99684.16
2024-02-26T04:40:43.717Z,99689.69
2024-02-26T04:43:29.813Z,99691.84
2024-02-26T04:46:15.967Z,99688.31
2024-02-26T04:49:02.521Z,99687.69
2024-02-26T04:51:50.252Z,99699.22
2024-02-26T04:54:36.784Z,99701.72
2024-02-26T04:57:23.400Z,99702.75
2024-02-26T05:00:10.808Z,99699.13
2024-02-26T05:02:56.987Z,99700.69
2024-02-26T05:05:42.991Z,99708.94
2024-02-26T05:08:31.781Z,99710.31
2024-02-26T05:11:19.402Z,99715.88
2024-02-26T05:14:05.436Z,99728.09
2024-02-26T05:16:51.455Z,99730.66
2024-02-26T05:19:37.846Z,99728.56
2024-02-26T05:22:23.834Z,99727.06
2024-02-26T05:25:11.238Z,99723.81
2024-02-26T05:27:57.228Z,99719.09
2024-02-26T05:30:43.469Z,99726.31
2024-02-26T05:33:29.562Z,99732.78
2024-02-26T05:36:20.482Z,99733.91
2024-02-26T05:39:06.658Z,99729.81
2024-02-26T05:41:53.922Z,99731.03
2024-02-26T05:44:40.212Z,99731.47
2024-02-26T05:47:26.476Z,99731.31
2024-02-26T05:50:13.608Z,99729.72
2024-02-26T05:52:59.882Z,99735.97
2024-02-26T05:55:46.074Z,99733.56
2024-02-26T05:58:33.389Z,99732.34
2024-02-26T06:01:19.845Z,99739.19
2024-02-26T06:04:06.158Z,99739.84
2024-02-26T06:06:52.352Z,99748.28
2024-02-26T06:09:38.767Z,99758.66
2024-02-26T06:12:24.946Z,99743.16
2024-02-26T06:15:13.189Z,99752.06
2024-02-26T06:17:59.723Z,99746.25
2024-02-26T06:20:47.333Z,99756.91
2024-02-26T06:23:33.601Z,99760.06
2024-02-26T06:26:19.922Z,99761.34
2024-02-26T06:29:06.049Z,99765.78
2024-02-26T06:31:53.430Z,99767.06
2024-02-26T06:34:42.001Z,99771.81
2024-02-26T06:37:27.987Z,99776.25
2024-02-26T06:40:14.670Z,99776.63
2024-02-26T06:43:00.865Z,99782.09
2024-02-26T06:45:46.972Z,99783.22
2024-02-26T06:48:34.464Z,99790.28
2024-02-26T06:51:20.745Z,99796.94
2024-02-26T06:54:07.083Z,99795.44
2024-02-26T06:56:53.467Z,99800.34
2024-02-26T06:59:41.385Z,99817.94
2024-02-26T07:02:27.570Z,99814.78
2024-02-26T07:05:14.820Z,99822.81
2024-02-26T07:08:01.017Z,99826.72
2024-02-26T07:10:47.501Z,99833.09
2024-02-26T07:13:33.630Z,99836.16
2024-02-26T07:16:19.701Z,99835.03
2024-02-26T07:19:06.220Z,99835.50
2024-02-26T07:21:53.767Z,99838.16
2024-02-26T07:24:40.048Z,99840.38
2024-02-26T07:27:26.602Z,99841.06
2024-02-26T07:30:13.775Z,99850.19
2024-02-26T07:33:00.083Z,99841.13
2024-02-26T07:35:46.339Z,99838.06
2024-02-26T07:38:42.241Z,99839.25
2024-02-26T07:41:30.106Z,99843.25
2024-02-26T07:44:16.142Z,99838.38
2024-02-26T07:47:02.381Z,99845.84
2024-02-26T07:49:48.473Z,99844.34
2024-02-26T07:52:34.574Z,99841.50
2024-02-26T07:55:23.218Z,99837.41
2024-02-26T07:58:09.961Z,99840.09
2024-02-26T08:00:56.357Z,99848.06
2024-02-26T08:03:42.789Z,99846.66
2024-02-26T08:06:29.238Z,99848.44
2024-02-26T08:09:15.301Z,99842.53
2024-02-26T08:12:02.796Z,99850.84
2024-02-26T08:14:49.033Z,99846.50
2024-02-26T08:17:35.307Z,99852.53
2024-02-26T08:20:21.272Z,99853.63
2024-02-26T08:23:07.274Z,99855.53
2024-02-26T08:25:53.266Z,99870.44
2024-02-26T08:28:40.747Z,99856.19
2024-02-26T08:31:26.812Z,99851.28
2024-02-26T08:34:12.985Z,99850.31
2024-02-26T08:36:59.300Z,99854.91
2024-02-26T08:39:46.929Z,99853.09
2024-02-26T08:42:33.113Z,99849.19
2024-02-26T08:45:20.693Z,99851.09
2024-02-26T08:48:07.661Z,99855.50
2024-02-26T08:50:53.703Z,99849.94
2024-02-26T08:53:43.238Z,99859.88
2024-02-26T08:56:30.272Z,99854.50
2024-02-26T08:59:17.428Z,99859.47
2024-02-26T09:02:05.161Z,99861.78
2024-02-26T09:04:52.382Z,99855.00
2024-02-26T09:07:38.309Z,99863.69
2024-02-26T09:10:24.353Z,99866.19
2024-02-26T09:13:10.722Z,99867.50
2024-02-26T09:15:56.793Z,99867.91
2024-02-26T09:18:44.435Z,99867.56
2024-02-26T09:21:31.800Z,99865.50
2024-02-26T09:24:18.339Z,99864.06
2024-02-26T09:27:04.755Z,99859.97
2024-02-26T09:29:51.122Z,99863.31
2024-02-26T09:32:37.406Z,99865.75
2024-02-26T09:35:25.192Z,99865.75
2024-02-26T09:38:11.610Z,99874.00
2024-02-26T09:40:58.533Z,99873.56
2024-02-26T09:43:47.109Z,99873.56
2024-02-26T09:46:33.659Z,99886.66
2024-02-26T09:49:22.065Z,99885.84
2024-02-26T09:52:10.851Z,99889.19
2024-02-26T09:54:57.179Z,99887.13
2024-02-26T09:57:47.724Z,99894.38
2024-02-26T10:00:35.017Z,99892.25
2024-02-26T10:03:23.693Z,99896.34
2024-02-26T10:06:10.199Z,99901.38
2024-02-26T10:08:59.752Z,99900.16
2024-02-26T10:11:46.172Z,99908.03
2024-02-26T10:14:32.211Z,99913.22
2024-02-26T10:17:18.645Z,99915.50
2024-02-26T10:20:16.793Z,99917.19
2024-02-26T10:23:04.856Z,99918.84
2024-02-26T10:25:56.052Z,99928.41
2024-02-26T10:28:44.748Z,99929.22
2024-02-26T10:31:31.077Z,99928.81
2024-02-26T10:34:17.868Z,99935.13
2024-02-26T10:37:04.832Z,99941.31
2024-02-26T10:39:51.384Z,99946.34
2024-02-26T10:42:39.222Z,99942.22
2024-02-26T10:45:25.249Z,99941.81
2024-02-26T10:48:12.990Z,99938.16
2024-02-26T10:50:59.597Z,99935.28
2024-02-26T10:53:47.770Z,99946.63
2024-02-26T10:56:36.643Z,99941.38
2024-02-26T10:59:24.908Z,99941.78
2024-02-26T11:02:12.491Z,99945.13
2024-02-26T11:05:00.601Z,99949.28
2024-02-26T11:07:48.091Z,99950.56
2024-02-26T11:10:34.882Z,99952.28
2024-02-26T11:13:23.128Z,99946.75
2024-02-26T11:16:11.201Z,99950.50
2024-02-26T11:19:00.191Z,99946.19
2024-02-26T11:21:46.984Z,99942.28
2024-02-26T11:24:34.117Z,99946.84
2024-02-26T11:27:23.796Z,99946.63
2024-02-26T11:30:12.811Z,99944.59
2024-02-26T11:33:00.668Z,99943.69
2024-02-26T11:35:47.710Z,99947.47
2024-02-26T11:38:35.267Z,99944.59
2024-02-26T11:41:22.070Z,99950.41
2024-02-26T11:44:08.554Z,99945.06
2024-02-26T11:46:54.857Z,99945.66
2024-02-26T11:49:42.725Z,99940.72
2024-02-26T11:52:28.925Z,99936.59
2024-02-26T11:55:34.008Z,99938.09
2024-02-26T11:58:20.316Z,99941.28
2024-02-26T12:01:06.492Z,99945.22
2024-02-26T12:03:53.057Z,99941.72
2024-02-26T12:06:52.186Z,99943.63
2024-02-26T12:09:39.918Z,99946.94
2024-02-26T12:12:27.870Z,99945.25
2024-02-26T12:15:18.513Z,99950.66
2024-02-26T12:18:06.434Z,99947.97
2024-02-26T12:21:00.686Z,99958.13
2024-02-26T12:23:48.631Z,99963.75
2024-02-26T12:26:34.730Z,99962.13
2024-02-26T12:29:21.128Z,99965.06
2024-02-26T12:32:08.594Z,99964.47
2024-02-26T12:34:55.025Z,99966.75
2024-02-26T12:37:44.219Z,99965.97
2024-02-26T12:40:32.961Z,99957.91
2024-02-26T12:43:19.244Z,99961.06
2024-02-26T12:46:05.577Z,99962.94
2024-02-26T12:48:52.117Z,99965.47
2024-02-26T12:51:39.112Z,99959.25
2024-02-26T12:54:25.307Z,99966.53
2024-02-26T12:57:13.590Z,99967.13
2024-02-26T13:00:01.114Z,99978.78
2024-02-26T13:02:48.031Z,99977.53
2024-02-26T13:05:35.361Z,99981.06
2024-02-26T13:08:22.373Z,99991.66
2024-02-26T13:11:09.154Z,99989.78
2024-02-26T13:13:56.815Z,99999.31
2024-02-26T13:16:43.036Z,99996.00
2024-02-26T13:19:29.767Z,99988.53
2024-02-26T13:22:15.815Z,100001.63
2024-02-26T13:25:04.088Z,100000.16
2024-02-26T13:27:50.158Z,100012.41
2024-02-26T13:30:37.864Z,100010.31
2024-02-26T13:33:24.378Z,100017.00
2024-02-26T13:36:12.991Z,100009.09
2024-02-26T13:38:59.143Z,100009.09
2024-02-26T13:41:45.577Z,100011.19
2024-02-26T13:44:32.602Z,100007.47
2024-02-26T13:47:19.934Z,100010.16
2024-02-26T13:50:07.017Z,100012.22
2024-02-26T13:52:55.154Z,100008.25
2024-02-26T13:55:43.637Z,100020.94
2024-02-26T13:58:30.706Z,100010.31
2024-02-26T14:01:17.075Z,100016.16
2024-02-26T14:04:05.782Z,100012.41
2024-02-26T14:06:52.455Z,100019.84
2024-02-26T14:09:46.459Z,100020.91
2024-02-26T14:12:36.206Z,100021.53
2024-02-26T14:15:22.121Z,100024.66
2024-02-26T14:18:10.861Z,100025.47
2024-02-26T14:20:58.414Z,100032.75
2024-02-26T14:23:45.587Z,100034.59
2024-02-26T14:26:31.795Z,100037.94
2024-02-26T14:29:18.248Z,100050.41
2024-02-26T14:32:05.615Z,100048.94
2024-02-26T14:34:51.968Z,100053.50
2024-02-26T14:37:39.735Z,100061.81
2024-02-26T14:40:26.115Z,100053.47
2024-02-26T14:43:12.597Z,100068.41
2024-02-26T14:45:59.536Z,100065.13
2024-02-26T14:48:46.195Z,100065.34
2024-02-26T14:51:32.386Z,100085.50
2024-02-26T14:54:20.190Z,100083.84
2024-02-26T14:57:07.502Z,100090.91
2024-02-26T14:59:53.475Z,100089.66
2024-02-26T15:02:39.494Z,100090.50
2024-02-26T15:05:25.655Z,100096.13
2024-02-26T15:08:16.043Z,100092.59
2024-02-26T15:11:04.368Z,100102.16
2024-02-26T15:13:50.640Z,100112.53
2024-02-26T15:16:36.622Z,100118.78
2024-02-26T15:19:23.060Z,100109.66
2024-02-26T15:22:09.126Z,100107.97
2024-02-26T15:24:55.305Z,100119.63
2024-02-26T15:27:43.329Z,100120.00
2024-02-26T15:30:30.642Z,100126.03
2024-02-26T15:33:16.964Z,100140.16
2024-02-26T15:36:03.416Z,100144.31
2024-02-26T15:38:49.618Z,100163.22
2024-02-26T15:41:35.539Z,100169.47
2024-02-26T15:44:23.442Z,100172.38
2024-02-26T15:47:09.846Z,100172.56
2024-02-26T15:49:56.207Z,100175.66
2024-02-26T15:52:42.446Z,100172.34
2024-02-26T15:55:28.520Z,100167.75
2024-02-26T15:58:14.771Z,100167.09
2024-02-26T16:01:09.780Z,100170.41
2024-02-26T16:04:01.685Z,100167.91
2024-02-26T16:06:50.918Z,100170.97
2024-02-26T16:09:37.008Z,100168.69
2024-02-26T16:12:38.291Z,100175.13
2024-02-26T16:15:24.349Z,100181.53
2024-02-26T16:18:11.747Z,100189.63
2024-02-26T16:20:58.408Z,100191.50
2024-02-26T16:23:44.892Z,100193.38
2024-02-26T16:26:30.980Z,100202.50
2024-02-26T16:29:17.767Z,100202.28
2024-02-26T16:32:04.610Z,100206.47
2024-02-26T16:34:52.039Z,100206.66
2024-02-26T16:37:38.045Z,100213.75
2024-02-26T16:40:24.352Z,100218.28
2024-02-26T16:43:10.724Z,100230.75
2024-02-26T16:45:56.692Z,100229.94
2024-02-26T16:48:42.777Z,100230.75
2024-02-26T16:51:30.496Z,100232.63
2024-02-26T16:54:16.537Z,100234.47
2024-02-26T16:57:03.111Z,100241.97
2024-02-26T16:59:49.337Z,100249.00
2024-02-26T17:02:35.289Z,100247.53
2024-02-26T17:05:21.696Z,100247.53
2024-02-26T17:08:11.387Z,100255.63
2024-02-26T17:10:57.536Z,100252.09
2024-02-26T17:13:43.832Z,100251.47
2024-02-26T17:16:29.798Z,100253.53
2024-02-26T17:19:16.005Z,100262.63
2024-02-26T17:22:02.209Z,100254.94
2024-02-26T17:24:49.694Z,100265.09
2024-02-26T17:27:36.277Z,100266.75
2024-02-26T17:30:22.585Z,100271.53
2024-02-26T17:33:08.730Z,100274.59
2024-02-26T17:35:55.203Z,100280.00
2024-02-26T17:38:41.515Z,100280.41
2024-02-26T17:41:29.064Z,100284.78
2024-02-26T17:44:15.466Z,100294.34
2024-02-26T17:47:01.934Z,100294.91
2024-02-26T17:49:47.993Z,100295.28
2024-02-26T17:52:37.543Z,100306.72
2024-02-26T17:55:24.199Z,100308.00
2024-02-26T17:58:12.022Z,100309.03
2024-02-26T18:00:58.256Z,100313.22
2024-02-26T18:03:44.516Z,100313.38
2024-02-26T18:06:31.153Z,100322.97
2024-02-26T18:09:18.513Z,100326.13
2024-02-26T18:12:04.900Z,100329.28
2024-02-26T18:14:52.506Z,100328.63
2024-02-26T18:17:39.669Z,100335.50
2024-02-26T18:20:25.606Z,100335.50
2024-02-26T18:23:11.835Z,100354.78
2024-02-26T18:25:57.842Z,100357.47
2024-02-26T18:28:43.844Z,100363.50
2024-02-26T18:31:31.482Z,100368.25
2024-02-26T18:34:17.830Z,100368.53
2024-02-26T18:37:04.451Z,100375.97
2024-02-26T18:39:53.785Z,100373.91
2024-02-26T18:42:40.679Z,100377.25
2024-02-26T18:45:26.907Z,100379.94
2024-02-26T18:48:14.052Z,100393.63
2024-02-26T18:51:00.376Z,100405.09
2024-02-26T18:53:46.727Z,100411.31
2024-02-26T18:56:32.896Z,100409.38
2024-02-26T18:59:19.445Z,100416.16
2024-02-26T19:02:06.310Z,100417.78
2024-02-26T19:04:53.726Z,100429.22
2024-02-26T19:07:40.019Z,100431.47
2024-02-26T19:10:26.315Z,100440.38
2024-02-26T19:13:12.762Z,100442.25
2024-02-26T19:15:58.823Z,100455.56
2024-02-26T19:18:44.907Z,100461.13
2024-02-26T19:21:32.740Z,100456.13
2024-02-26T19:24:19.110Z,100464.34
2024-02-26T19:27:05.542Z,100466.16
2024-02-26T19:29:52.057Z,100472.38
2024-02-26T19:32:37.926Z,100485.66
2024-02-26T19:35:24.077Z,100491.72
2024-02-26T19:38:11.739Z,100495.25
2024-02-26T19:40:58.130Z,100493.75
2024-02-26T19:43:44.654Z,100495.81
2024-02-26T19:46:30.539Z,100502.81
2024-02-26T19:49:16.757Z,100510.44
2024-02-26T19:52:03.060Z,100517.22
2024-02-26T19:54:50.385Z,100521.75
2024-02-26T19:57:36.612Z,100531.63
2024-02-26T20:00:22.545Z,100533.66
2024-02-26T20:03:08.776Z,100539.34
2024-02-26T20:05:55.251Z,100533.03
2024-02-26T20:08:41.556Z,100543.16
2024-02-26T20:11:28.997Z,100545.84
2024-02-26T20:14:15.914Z,100543.34
2024-02-26T20:17:02.026Z,100554.69
2024-02-26T20:19:48.439Z,100560.25
2024-02-26T20:22:36.685Z,100561.44
2024-02-26T20:25:23.727Z,100558.84
2024-02-26T20:28:11.352Z,100564.59
2024-02-26T20:30:57.771Z,100570.47
2024-02-26T20:33:44.521Z,100579.41
2024-02-26T20:36:30.870Z,100579.78
2024-02-26T20:39:17.166Z,100591.56
2024-02-26T20:42:03.780Z,100586.88
2024-02-26T20:44:52.850Z,100593.47
2024-02-26T20:47:39.215Z,100602.22
2024-02-26T20:50:25.175Z,100596.84
2024-02-26T20:53:13.989Z,100598.03
2024-02-26T20:56:00.197Z,100601.56
2024-02-26T20:58:46.405Z,100604.25
2024-02-26T21:01:34.935Z,100606.50
2024-02-26T21:04:24.429Z,100607.97
2024-02-26T21:07:11.305Z,100616.53
2024-02-26T21:09:57.221Z,100617.28
2024-02-26T21:12:43.323Z,100624.50
2024-02-26T21:15:30.250Z,100631.03
2024-02-26T21:18:20.988Z,100647.03
2024-02-26T21:21:07.199Z,100645.34
2024-02-26T21:23:53.504Z,100650.44
2024-02-26T21:26:39.546Z,100651.34
2024-02-26T21:29:25.608Z,100654.59
2024-02-26T21:32:11.854Z,100660.81
2024-02-26T21:34:59.512Z,100666.44
2024-02-26T21:37:46.343Z,100672.34
2024-02-26T21:40:32.684Z,100674.72
2024-02-26T21:43:18.830Z,100673.22
2024-02-26T21:46:06.140Z,100681.00
2024-02-26T21:48:52.473Z,100688.25
2024-02-26T21:51:45.866Z,100685.56
2024-02-26T21:54:34.455Z,100699.91
2024-02-26T21:57:21.826Z,100695.06
2024-02-26T22:00:09.211Z,100696.25
2024-02-26T22:02:55.455Z,100703.81
2024-02-26T22:05:42.433Z,100705.31
2024-02-26T22:08:30.134Z,100703.97
2024-02-26T22:11:16.610Z,100718.59
2024-02-26T22:14:03.897Z,100725.19
2024-02-26T22:16:50.108Z,100722.34
2024-02-26T22:19:36.256Z,100727.38
2024-02-26T22:22:22.698Z,100724.66
2024-02-26T22:25:10.554Z,100718.59
2024-02-26T22:27:56.765Z,100739.66
2024-02-26T22:30:45.494Z,100738.50
2024-02-26T22:33:31.762Z,100740.22
2024-02-26T22:36:18.364Z,100743.25
2024-02-26T22:39:05.604Z,100738.72
2024-02-26T22:41:53.135Z,100738.56
2024-02-26T22:44:39.731Z,100751.34
2024-02-26T22:47:26.179Z,100742.94
2024-02-26T22:50:12.272Z,100755.91
2024-02-26T22:52:58.292Z,100754.38
2024-02-26T22:55:48.735Z,100765.47
2024-02-26T22:58:36.247Z,100759.44
2024-02-26T23:01:24.225Z,100765.16
2024-02-26T23:04:10.445Z,100766.00
2024-02-26T23:06:56.702Z,100767.00
2024-02-26T23:09:43.151Z,100768.88
2024-02-26T23:12:29.355Z,100767.38
2024-02-26T23:15:16.910Z,100777.44
2024-02-26T23:18:03.139Z,100771.06
2024-02-26T23:20:49.213Z,100774.41
2024-02-26T23:23:35.155Z,100784.66
2024-02-26T23:26:21.290Z,100789.22
2024-02-26T23:29:07.421Z,100795.44
2024-02-26T23:31:55.667Z,100794.09
2024-02-26T23:34:41.844Z,100794.09
2024-02-26T23:37:28.348Z,100796.63
2024-02-26T23:40:14.780Z,100792.75
2024-02-26T23:43:01.312Z,100789.59
2024-02-26T23:45:48.487Z,100792.94
2024-02-26T23:48:35.831Z,100786.38
2024-02-26T23:51:22.430Z,100801.66
2024-02-26T23:54:08.892Z,100798.50
2024-02-26T23:56:55.078Z,100790.75
2024-02-26T23:59:41.460Z,100792.78
